createdAt,value
2023-05-11T00:04:39.823Z,10.80
2023-05-11T00:09:41.737Z,10.60
2023-05-11T00:14:43.318Z,12.10
2023-05-11T00:19:44.848Z,12.93
2023-05-11T00:24:46.443Z,11.27
2023-05-11T00:29:47.986Z,10.77
2023-05-11T00:34:49.511Z,13.85
2023-05-11T00:39:51.072Z,13.55
2023-05-11T00:44:52.529Z,13.40
2023-05-11T00:49:54.884Z,13.15
2023-05-11T00:54:56.614Z,14.27
2023-05-11T00:59:58.182Z,10.60
2023-05-11T01:05:00.588Z,12.20
2023-05-11T01:10:20.891Z,11.52
2023-05-11T01:15:40.356Z,14.07
2023-05-11T01:20:44.791Z,9.65
2023-05-11T01:26:27.978Z,14.70
2023-05-11T01:31:32.210Z,12.07
2023-05-11T01:36:36.133Z,10.65
2023-05-11T01:41:40.162Z,12.45
2023-05-11T01:46:41.697Z,11.23
2023-05-11T01:51:45.429Z,12.10
2023-05-11T01:56:49.890Z,12.35
2023-05-11T02:01:51.516Z,13.27
2023-05-11T02:06:55.180Z,11.02
2023-05-11T02:11:57.664Z,13.48
2023-05-11T02:17:00.407Z,13.38
2023-05-11T02:22:03.178Z,11.45
2023-05-11T02:27:04.869Z,9.85
2023-05-11T02:32:13.079Z,16.00
2023-05-11T02:37:21.196Z,11.48
2023-05-11T02:42:23.736Z,12.40
2023-05-11T02:47:30.179Z,15.93
2023-05-11T02:52:34.645Z,17.25
2023-05-11T02:57:36.241Z,19.30
2023-05-11T03:02:37.824Z,22.45
2023-05-11T03:07:39.520Z,18.83
2023-05-11T03:12:41.220Z,19.50
2023-05-11T03:17:43.683Z,23.80
2023-05-11T03:22:46.768Z,27.02
2023-05-11T03:27:51.251Z,19.85
2023-05-11T03:32:52.956Z,18.15
2023-05-11T03:37:56.526Z,24.45
2023-05-11T03:43:00.087Z,25.73
2023-05-11T03:48:03.905Z,17.45
2023-05-11T03:53:06.079Z,21.15
2023-05-11T03:58:11.099Z,17.00
2023-05-11T04:03:12.833Z,16.50
2023-05-11T04:08:14.717Z,20.20
2023-05-11T04:13:16.191Z,22.77
2023-05-11T04:18:17.778Z,17.10
2023-05-11T04:23:19.309Z,15.73
2023-05-11T04:28:22.359Z,21.92
2023-05-11T04:33:24.279Z,16.08
2023-05-11T04:38:26.402Z,23.08
2023-05-11T04:43:27.915Z,15.68
2023-05-11T04:48:29.521Z,16.95
2023-05-11T04:53:31.063Z,18.25
2023-05-11T04:58:32.537Z,17.25
2023-05-11T05:03:34.155Z,18.15
2023-05-11T05:08:35.720Z,18.55
2023-05-11T05:13:37.235Z,17.15
2023-05-11T05:18:38.964Z,17.33
2023-05-11T05:23:40.549Z,24.40
2023-05-11T05:28:42.006Z,19.55
2023-05-11T05:33:43.569Z,21.85
2023-05-11T05:38:45.177Z,14.98
2023-05-11T05:43:46.773Z,15.27
2023-05-11T05:48:48.284Z,13.60
2023-05-11T05:53:49.818Z,16.95
2023-05-11T05:58:51.371Z,18.60
2023-05-11T06:03:53.555Z,14.23
2023-05-11T06:08:55.288Z,15.45
2023-05-11T06:13:56.881Z,15.80
2023-05-11T06:19:00.223Z,18.35
2023-05-11T06:24:01.847Z,25.35
2023-05-11T06:29:03.378Z,21.52
2023-05-11T06:34:04.917Z,25.08
2023-05-11T06:39:06.909Z,24.35
2023-05-11T06:44:08.512Z,27.02
2023-05-11T06:49:10.063Z,31.20
2023-05-11T06:54:11.724Z,30.08
2023-05-11T06:59:13.829Z,32.45
2023-05-11T07:04:15.445Z,30.38
2023-05-11T07:09:17.071Z,34.47
2023-05-11T07:14:18.933Z,30.30
2023-05-11T07:19:20.471Z,29.50
2023-05-11T07:24:21.973Z,26.85
2023-05-11T07:29:23.536Z,31.75
2023-05-11T07:34:25.044Z,26.63
2023-05-11T07:39:26.728Z,22.10
2023-05-11T07:44:28.256Z,23.27
2023-05-11T07:49:39.959Z,20.92
2023-05-11T07:54:44.896Z,23.70
2023-05-11T07:59:46.452Z,16.38
2023-05-11T08:04:48.039Z,18.48
2023-05-11T08:09:49.685Z,23.95
2023-05-11T08:14:51.224Z,22.02
2023-05-11T08:19:52.917Z,17.23
2023-05-11T08:24:54.459Z,18.85
2023-05-11T08:29:56.014Z,16.20
2023-05-11T08:34:57.871Z,16.17
2023-05-11T08:39:59.628Z,15.43
2023-05-11T08:45:02.217Z,13.30
2023-05-11T08:50:04.411Z,13.93
2023-05-11T08:55:07.107Z,13.98
2023-05-11T09:00:09.185Z,12.55
2023-05-11T09:05:11.277Z,14.65
2023-05-11T09:10:14.008Z,13.30
2023-05-11T09:15:15.717Z,14.05
2023-05-11T09:20:27.367Z,12.73
2023-05-11T09:25:32.320Z,13.13
2023-05-11T09:30:33.908Z,12.05
2023-05-11T09:35:35.989Z,10.88
2023-05-11T09:40:57.710Z,10.15
2023-05-11T09:46:07.196Z,10.30
2023-05-11T09:51:09.162Z,8.80
2023-05-11T09:56:15.538Z,8.65
2023-05-11T10:01:27.777Z,9.43
2023-05-11T10:06:46.668Z,9.05
2023-05-11T10:11:49.323Z,10.10
2023-05-11T10:16:52.054Z,9.07
2023-05-11T10:21:55.371Z,9.02
2023-05-11T10:26:57.474Z,9.40
2023-05-11T10:32:00.235Z,11.13
2023-05-11T10:37:02.609Z,9.90
2023-05-11T10:42:25.586Z,8.73
2023-05-11T10:47:32.979Z,7.93
2023-05-11T10:52:55.860Z,8.32
2023-05-11T10:58:13.197Z,6.72
2023-05-11T11:03:15.480Z,7.15
2023-05-11T11:08:16.991Z,6.80
2023-05-11T11:13:20.606Z,8.55
2023-05-11T11:18:29.911Z,5.65
2023-05-11T11:23:49.989Z,6.63
2023-05-11T11:28:54.278Z,7.15
2023-05-11T11:34:01.097Z,7.78
2023-05-11T11:39:03.903Z,6.93
2023-05-11T11:44:05.506Z,7.57
2023-05-11T11:49:08.415Z,6.55
2023-05-11T11:54:10.319Z,8.35
2023-05-11T11:59:14.005Z,7.28
2023-05-11T12:04:40.753Z,7.85
2023-05-11T12:09:46.062Z,6.72
2023-05-11T12:14:50.723Z,6.50
2023-05-11T12:19:52.335Z,6.38
2023-05-11T12:24:59.639Z,6.57
2023-05-11T12:30:02.063Z,5.60
2023-05-11T12:35:04.669Z,6.00
2023-05-11T12:40:10.950Z,6.40
2023-05-11T12:45:12.633Z,6.07
2023-05-11T12:50:14.296Z,6.18
2023-05-11T12:55:27.940Z,7.28
2023-05-11T13:00:29.458Z,7.60
2023-05-11T13:05:30.952Z,7.40
2023-05-11T13:10:32.611Z,7.18
2023-05-11T13:15:34.533Z,7.85
2023-05-11T13:20:36.568Z,6.40
2023-05-11T13:25:49.881Z,7.78
2023-05-11T13:30:52.639Z,6.97
2023-05-11T13:35:54.343Z,6.68
2023-05-11T13:40:55.845Z,8.15
2023-05-11T13:45:57.343Z,6.97
2023-05-11T13:50:58.887Z,8.95
2023-05-11T13:56:01.647Z,6.93
2023-05-11T14:01:07.672Z,7.35
2023-05-11T14:06:10.262Z,10.20
2023-05-11T14:11:11.796Z,8.07
2023-05-11T14:16:13.767Z,8.18
2023-05-11T14:21:16.013Z,8.63
2023-05-11T14:26:17.576Z,7.75
2023-05-11T14:31:19.129Z,7.07
2023-05-11T14:36:20.632Z,6.35
2023-05-11T14:41:22.196Z,8.32
2023-05-11T14:46:26.674Z,6.63
2023-05-11T14:51:28.547Z,7.72
2023-05-11T14:56:30.087Z,8.65
2023-05-11T15:01:31.587Z,7.30
2023-05-11T15:06:33.162Z,7.75
2023-05-11T15:11:37.456Z,9.27
2023-05-11T15:16:39.004Z,7.13
2023-05-11T15:21:40.753Z,7.35
2023-05-11T15:26:43.367Z,7.70
2023-05-11T15:31:44.915Z,7.57
2023-05-11T15:36:48.500Z,9.32
2023-05-11T15:41:50.068Z,7.28
2023-05-11T15:46:51.613Z,7.55
2023-05-11T15:51:53.223Z,10.90
2023-05-11T15:56:54.735Z,9.45
2023-05-11T16:01:56.299Z,7.97
2023-05-11T16:06:58.962Z,7.10
2023-05-11T16:12:00.971Z,9.50
2023-05-11T16:17:02.844Z,8.02
2023-05-11T16:22:04.483Z,6.25
2023-05-11T16:27:05.993Z,7.07
2023-05-11T16:32:07.580Z,5.65
2023-05-11T16:37:10.235Z,7.95
2023-05-11T16:42:12.041Z,6.95
2023-05-11T16:47:13.571Z,5.25
2023-05-11T16:52:15.102Z,5.95
2023-05-11T16:57:16.644Z,6.55
2023-05-11T17:02:19.740Z,6.00
2023-05-11T17:07:21.341Z,8.40
2023-05-11T17:12:23.509Z,9.02
2023-05-11T17:17:25.165Z,8.43
2023-05-11T17:22:28.431Z,8.90
2023-05-11T17:27:31.517Z,9.60
2023-05-11T17:32:33.509Z,8.02
2023-05-11T17:37:35.240Z,7.00
2023-05-11T17:42:36.772Z,6.78
2023-05-11T17:47:38.408Z,7.38
2023-05-11T17:52:39.920Z,3.65
2023-05-11T17:57:41.758Z,9.27
2023-05-11T18:02:46.860Z,6.30
2023-05-11T18:07:49.447Z,4.78
2023-05-11T18:12:50.990Z,3.95
2023-05-11T18:17:54.108Z,6.93
2023-05-11T18:22:56.571Z,4.72
2023-05-11T18:28:02.130Z,6.30
2023-05-11T18:33:03.693Z,6.13
2023-05-11T18:38:05.339Z,6.60
2023-05-11T18:43:06.814Z,4.40
2023-05-11T18:48:08.447Z,3.47
2023-05-11T18:53:10.082Z,5.22
2023-05-11T18:58:12.705Z,6.80
2023-05-11T19:03:15.142Z,3.88
2023-05-11T19:08:16.798Z,5.25
2023-05-11T19:13:18.952Z,3.58
2023-05-11T19:18:20.527Z,5.18
2023-05-11T19:23:22.185Z,3.80
2023-05-11T19:28:23.793Z,6.88
2023-05-11T19:33:25.274Z,4.63
2023-05-11T19:38:26.921Z,5.95
2023-05-11T19:43:28.437Z,5.00
2023-05-11T19:48:30.789Z,4.70
2023-05-11T19:53:32.510Z,8.18
2023-05-11T19:58:34.246Z,8.20
2023-05-11T20:03:35.913Z,8.68
2023-05-11T20:08:37.688Z,7.53
2023-05-11T20:13:39.174Z,8.02
2023-05-11T20:18:40.750Z,6.85
2023-05-11T20:23:42.395Z,6.18
2023-05-11T20:28:43.922Z,6.60
2023-05-11T20:38:52.843Z,5.53
2023-05-11T20:43:54.832Z,5.97
2023-05-11T20:48:56.978Z,10.27
2023-05-11T20:53:58.518Z,6.50
2023-05-11T20:59:00.117Z,7.50
2023-05-11T21:04:01.659Z,4.60
2023-05-11T21:09:04.411Z,5.82
2023-05-11T21:14:05.959Z,4.35
2023-05-11T21:19:07.910Z,7.85
2023-05-11T21:24:09.491Z,5.55
2023-05-11T21:29:12.999Z,6.28
2023-05-11T21:34:14.948Z,6.32
2023-05-11T21:39:16.480Z,9.88
2023-05-11T21:44:17.999Z,6.35
2023-05-11T21:49:19.553Z,5.38
2023-05-11T21:54:22.406Z,4.72
2023-05-11T21:59:26.708Z,7.53
2023-05-11T22:04:28.434Z,6.43
2023-05-11T22:09:31.519Z,10.88
2023-05-11T22:14:33.045Z,9.63
2023-05-11T22:19:34.561Z,9.50
2023-05-11T22:24:36.096Z,10.60
2023-05-11T22:29:37.616Z,9.88
2023-05-11T22:34:39.133Z,6.95
2023-05-11T22:39:40.620Z,8.95
2023-05-11T22:44:42.293Z,6.28
2023-05-11T22:49:43.836Z,9.90
2023-05-11T22:54:45.366Z,8.82
2023-05-11T22:59:46.844Z,7.82
2023-05-11T23:04:52.208Z,7.53
2023-05-11T23:09:53.738Z,8.27
2023-05-11T23:14:55.281Z,8.52
2023-05-11T23:19:56.909Z,7.80
2023-05-11T23:25:00.370Z,8.73
2023-05-11T23:30:01.852Z,8.05
2023-05-11T23:35:03.421Z,6.43
2023-05-11T23:40:06.227Z,7.57
2023-05-11T23:45:08.674Z,5.68
2023-05-11T23:50:11.326Z,5.80
2023-05-11T23:55:12.894Z,6.97
